Station Historical Data
Daily Summary for September 13, 2017 Units:  Both    English   Metric
« Previous Day
Next Day »
Daily Weekly Monthly Yearly Custom
  High: Low: Average:
Temperature: 73.5 °F /  23.1 °C 43.9 °F /  6.6 °C 58.6 °F /  14.8 °C
Dew Point: 48.9 °F /  9.4 °C 33.6 °F /  0.9 °C 39.2 °F /  4 °C
Humidity: 78% 25% 52%
Wind Speed: 17.7mph /  28.5km/h - 1mph /  1.6km/h
Wind Gust: 21.0mph /  33.8km/h - -
Wind- - WSW
Pressure: 29.98 in /  1015.1 hPa 29.91 in /  1012.8 hPa -
Precipitation: 0.00 in /  0 mm    
Historical Graphs
 
 
Tabular Data for September 13, 2017
Time Temperature Dew Point Pressure Wind Wind Speed Wind Gust Humidity Rainfall Rate (Hourly) solar Conditions
00:03 49.3 °F /  9.6 °C 37.2 °F /  2.9 °C 29.94in /  1013.8hPa Calm     63% 0.00in /  0mm 0.0 W/m2 CLR
00:08 49.1 °F /  9.5 °C 37.0 °F /  2.8 °C 29.94in /  1013.8hPa Calm     63% 0.00in /  0mm 0.0 W/m2 CLR
00:13 48.7 °F /  9.3 °C 37.1 °F /  2.8 °C 29.94in /  1013.8hPa Calm     64% 0.00in /  0mm 0.0 W/m2 CLR
00:18 48.0 °F /  8.9 °C 36.8 °F /  2.7 °C 29.94in /  1013.8hPa Calm     65% 0.00in /  0mm 0.0 W/m2 CLR
00:23 48.0 °F /  8.9 °C 36.8 °F /  2.7 °C 29.94in /  1013.8hPa Calm     65% 0.00in /  0mm 0.0 W/m2 CLR
00:28 48.0 °F /  8.9 °C 36.8 °F /  2.7 °C 29.94in /  1013.8hPa Calm     65% 0.00in /  0mm 0.0 W/m2 CLR
00:33 48.0 °F /  8.9 °C 36.8 °F /  2.7 °C 29.94in /  1013.8hPa Calm     65% 0.00in /  0mm 0.0 W/m2 CLR
00:38 47.8 °F /  8.8 °C 36.6 °F /  2.6 °C 29.94in /  1013.8hPa Calm     65% 0.00in /  0mm 0.0 W/m2 CLR
00:43 47.5 °F /  8.6 °C 36.7 °F /  2.6 °C 29.94in /  1013.8hPa Calm     66% 0.00in /  0mm 0.0 W/m2 CLR
00:48 47.1 °F /  8.4 °C 36.7 °F /  2.6 °C 29.94in /  1013.8hPa Calm     67% 0.00in /  0mm 0.0 W/m2 CLR
00:53 46.6 °F /  8.1 °C 36.6 °F /  2.6 °C 29.94in /  1013.8hPa Calm     68% 0.00in /  0mm 0.0 W/m2 CLR
00:58 46.8 °F /  8.2 °C 36.8 °F /  2.7 °C 29.94in /  1013.8hPa Calm     68% 0.00in /  0mm 0.0 W/m2 CLR
01:03 46.8 °F /  8.2 °C 36.8 °F /  2.7 °C 29.94in /  1013.8hPa Calm     68% 0.00in /  0mm 0.0 W/m2 CLR
01:08 47.1 °F /  8.4 °C 37.1 °F /  2.8 °C 29.94in /  1013.8hPa Calm     68% 0.00in /  0mm 0.0 W/m2 CLR
01:13 47.1 °F /  8.4 °C 37.1 °F /  2.8 °C 29.94in /  1013.8hPa Calm     68% 0.00in /  0mm 0.0 W/m2 CLR
01:18 47.1 °F /  8.4 °C 37.1 °F /  2.8 °C 29.94in /  1013.8hPa Calm     68% 0.00in /  0mm 0.0 W/m2 CLR
01:23 46.9 °F /  8.3 °C 36.9 °F /  2.7 °C 29.94in /  1013.8hPa Calm     68% 0.00in /  0mm 0.0 W/m2 CLR
01:28 47.3 °F /  8.5 °C 37.3 °F /  2.9 °C 29.94in /  1013.8hPa Calm     68% 0.00in /  0mm 0.0 W/m2 CLR
01:33 47.1 °F /  8.4 °C 37.5 °F /  3.1 °C 29.94in /  1013.8hPa Calm     69% 0.00in /  0mm 0.0 W/m2 CLR
01:38 46.8 °F /  8.2 °C 37.1 °F /  2.8 °C 29.94in /  1013.8hPa Calm     69% 0.00in /  0mm 0.0 W/m2 CLR
01:43 46.6 °F /  8.1 °C 37.0 °F /  2.8 °C 29.94in /  1013.8hPa Calm     69% 0.00in /  0mm 0.0 W/m2 CLR
01:48 46.8 °F /  8.2 °C 37.1 °F /  2.8 °C 29.94in /  1013.8hPa Calm     69% 0.00in /  0mm 0.0 W/m2 CLR
01:53 46.8 °F /  8.2 °C 37.1 °F /  2.8 °C 29.94in /  1013.8hPa Calm     69% 0.00in /  0mm 0.0 W/m2 CLR
01:58 46.2 °F /  7.9 °C 36.6 °F /  2.6 °C 29.94in /  1013.8hPa Calm     69% 0.00in /  0mm 0.0 W/m2 CLR
02:03 46.4 °F /  8 °C 36.8 °F /  2.7 °C 29.94in /  1013.8hPa Calm     69% 0.00in /  0mm 0.0 W/m2 CLR
02:08 46.8 °F /  8.2 °C 37.1 °F /  2.8 °C 29.94in /  1013.8hPa Calm     69% 0.00in /  0mm 0.0 W/m2 CLR
02:13 46.6 °F /  8.1 °C 37.0 °F /  2.8 °C 29.94in /  1013.8hPa Calm     69% 0.00in /  0mm 0.0 W/m2 CLR
02:18 46.9 °F /  8.3 °C 37.3 °F /  2.9 °C 29.94in /  1013.8hPa Calm     69% 0.00in /  0mm 0.0 W/m2 CLR
02:23 46.8 °F /  8.2 °C 37.1 °F /  2.8 °C 29.94in /  1013.8hPa Calm     69% 0.00in /  0mm 0.0 W/m2 CLR
02:28 46.9 °F /  8.3 °C 37.3 °F /  2.9 °C 29.94in /  1013.8hPa Calm     69% 0.00in /  0mm 0.0 W/m2 CLR
02:33 46.8 °F /  8.2 °C 37.1 °F /  2.8 °C 29.94in /  1013.8hPa Calm     69% 0.00in /  0mm 0.0 W/m2 CLR
02:38 46.9 °F /  8.3 °C 37.3 °F /  2.9 °C 29.94in /  1013.8hPa Calm     69% 0.00in /  0mm 0.0 W/m2 CLR
02:43 46.9 °F /  8.3 °C 37.3 °F /  2.9 °C 29.94in /  1013.8hPa Calm     69% 0.00in /  0mm 0.0 W/m2 CLR
02:48 46.8 °F /  8.2 °C 37.1 °F /  2.8 °C 29.94in /  1013.8hPa Calm     69% 0.00in /  0mm 0.0 W/m2 CLR
02:53 46.6 °F /  8.1 °C 37.0 °F /  2.8 °C 29.94in /  1013.8hPa Calm     69% 0.00in /  0mm 0.0 W/m2 CLR
02:58 46.4 °F /  8 °C 36.8 °F /  2.7 °C 29.94in /  1013.8hPa Calm     69% 0.00in /  0mm 0.0 W/m2 CLR
03:03 46.6 °F /  8.1 °C 37.0 °F /  2.8 °C 29.95in /  1014.1hPa Calm     69% 0.00in /  0mm 0.0 W/m2 CLR
03:08 46.6 °F /  8.1 °C 37.0 °F /  2.8 °C 29.95in /  1014.1hPa Calm     69% 0.00in /  0mm 0.0 W/m2 CLR
03:13 46.6 °F /  8.1 °C 37.3 °F /  2.9 °C 29.94in /  1013.8hPa SW 4.7mph /  7.6km/h 4.7mph /  7.6km/h 70% 0.00in /  0mm 0.0 W/m2 CLR
03:18 46.9 °F /  8.3 °C 37.3 °F /  2.9 °C 29.95in /  1014.1hPa Calm     69% 0.00in /  0mm 0.0 W/m2 CLR
03:20 46.9 °F /  8.3 °C 37.3 °F /  2.9 °C 29.95in /  1014.1hPa Calm     69% 0.00in /  0mm 0.0 W/m2 CLR
03:25 46.8 °F /  8.2 °C 37.5 °F /  3.1 °C 29.94in /  1013.8hPa Calm     70% 0.00in /  0mm 0.0 W/m2 CLR
03:30 46.2 °F /  7.9 °C 37.0 °F /  2.8 °C 29.94in /  1013.8hPa Calm     70% 0.00in /  0mm 0.0 W/m2 CLR
03:35 46.2 °F /  7.9 °C 37.0 °F /  2.8 °C 29.94in /  1013.8hPa Calm     70% 0.00in /  0mm 0.0 W/m2 CLR
03:40 46.2 °F /  7.9 °C 37.0 °F /  2.8 °C 29.94in /  1013.8hPa Calm     70% 0.00in /  0mm 0.0 W/m2 CLR
03:45 46.0 °F /  7.8 °C 37.2 °F /  2.9 °C 29.95in /  1014.1hPa Calm     71% 0.00in /  0mm 0.0 W/m2 CLR
03:50 46.0 °F /  7.8 °C 37.2 °F /  2.9 °C 29.95in /  1014.1hPa Calm     71% 0.00in /  0mm 0.0 W/m2 CLR
03:55 46.0 °F /  7.8 °C 37.2 °F /  2.9 °C 29.94in /  1013.8hPa Calm     71% 0.00in /  0mm 0.0 W/m2 CLR
04:00 45.5 °F /  7.5 °C 36.6 °F /  2.6 °C 29.95in /  1014.1hPa Calm     71% 0.00in /  0mm 0.0 W/m2 CLR
04:05 45.0 °F /  7.2 °C 36.1 °F /  2.3 °C 29.95in /  1014.1hPa Calm     71% 0.00in /  0mm 0.0 W/m2 CLR
04:10 44.8 °F /  7.1 °C 36.3 °F /  2.4 °C 29.95in /  1014.1hPa Calm     72% 0.00in /  0mm 0.0 W/m2 CLR
04:15 45.0 °F /  7.2 °C 36.5 °F /  2.5 °C 29.95in /  1014.1hPa Calm     72% 0.00in /  0mm 0.0 W/m2 CLR
04:20 45.3 °F /  7.4 °C 36.8 °F /  2.7 °C 29.95in /  1014.1hPa Calm     72% 0.00in /  0mm 0.0 W/m2 CLR
04:25 45.3 °F /  7.4 °C 36.5 °F /  2.5 °C 29.95in /  1014.1hPa Calm     71% 0.00in /  0mm 0.0 W/m2 CLR
04:30 45.5 °F /  7.5 °C 37.0 °F /  2.8 °C 29.96in /  1014.4hPa Calm     72% 0.00in /  0mm 0.0 W/m2 CLR
04:35 45.0 °F /  7.2 °C 36.5 °F /  2.5 °C 29.96in /  1014.4hPa Calm     72% 0.00in /  0mm 0.0 W/m2 CLR
04:40 44.8 °F /  7.1 °C 36.7 °F /  2.6 °C 29.95in /  1014.1hPa Calm     73% 0.00in /  0mm 0.0 W/m2 CLR
04:45 44.8 °F /  7.1 °C 36.7 °F /  2.6 °C 29.95in /  1014.1hPa Calm     73% 0.00in /  0mm 0.0 W/m2 CLR
04:50 45.1 °F /  7.3 °C 37.0 °F /  2.8 °C 29.96in /  1014.4hPa Calm     73% 0.00in /  0mm 0.0 W/m2 CLR
04:55 45.3 °F /  7.4 °C 37.5 °F /  3.1 °C 29.96in /  1014.4hPa Calm     74% 0.00in /  0mm 0.0 W/m2 CLR
05:00 45.3 °F /  7.4 °C 37.2 °F /  2.9 °C 29.96in /  1014.4hPa Calm     73% 0.00in /  0mm 0.0 W/m2 CLR
05:05 45.1 °F /  7.3 °C 37.3 °F /  2.9 °C 29.96in /  1014.4hPa Calm     74% 0.00in /  0mm 0.0 W/m2 CLR
05:10 45.3 °F /  7.4 °C 37.5 °F /  3.1 °C 29.95in /  1014.1hPa Calm     74% 0.00in /  0mm 0.0 W/m2 CLR
05:15 45.7 °F /  7.6 °C 37.9 °F /  3.3 °C 29.96in /  1014.4hPa Calm     74% 0.00in /  0mm 0.0 W/m2 CLR
05:20 46.0 °F /  7.8 °C 38.2 °F /  3.4 °C 29.96in /  1014.4hPa Calm     74% 0.00in /  0mm 0.0 W/m2 CLR
05:25 46.2 °F /  7.9 °C 38.4 °F /  3.6 °C 29.96in /  1014.4hPa Calm     74% 0.00in /  0mm 0.0 W/m2 CLR
05:30 46.2 °F /  7.9 °C 38.0 °F /  3.3 °C 29.96in /  1014.4hPa Calm   4.6mph /  7.4km/h 73% 0.00in /  0mm 0.0 W/m2 CLR
05:35 46.2 °F /  7.9 °C 38.0 °F /  3.3 °C 29.96in /  1014.4hPa Calm     73% 0.00in /  0mm 0.0 W/m2 CLR
05:40 46.0 °F /  7.8 °C 37.9 °F /  3.3 °C 29.96in /  1014.4hPa Calm     73% 0.00in /  0mm 0.0 W/m2 CLR
05:45 45.5 °F /  7.5 °C 37.7 °F /  3.2 °C 29.96in /  1014.4hPa Calm     74% 0.00in /  0mm 0.0 W/m2 CLR
05:50 45.3 °F /  7.4 °C 37.9 °F /  3.3 °C 29.96in /  1014.4hPa Calm     75% 0.00in /  0mm 0.0 W/m2 CLR
05:55 45.1 °F /  7.3 °C 37.7 °F /  3.2 °C 29.97in /  1014.8hPa Calm     75% 0.00in /  0mm 0.0 W/m2 CLR
06:00 45.1 °F /  7.3 °C 37.7 °F /  3.2 °C 29.97in /  1014.8hPa Calm     75% 0.00in /  0mm 0.0 W/m2 CLR
06:05 45.3 °F /  7.4 °C 37.9 °F /  3.3 °C 29.97in /  1014.8hPa Calm     75% 0.00in /  0mm 0.0 W/m2 CLR
06:10 45.1 °F /  7.3 °C 37.7 °F /  3.2 °C 29.97in /  1014.8hPa Calm     75% 0.00in /  0mm 0.0 W/m2 CLR
06:15 44.8 °F /  7.1 °C 37.3 °F /  2.9 °C 29.97in /  1014.8hPa Calm     75% 0.00in /  0mm 0.0 W/m2 CLR
06:20 44.8 °F /  7.1 °C 37.7 °F /  3.2 °C 29.97in /  1014.8hPa Calm     76% 0.00in /  0mm 0.0 W/m2 CLR
06:25 45.0 °F /  7.2 °C 37.8 °F /  3.2 °C 29.97in /  1014.8hPa Calm     76% 0.00in /  0mm 0.0 W/m2 CLR
06:30 45.0 °F /  7.2 °C 37.8 °F /  3.2 °C 29.97in /  1014.8hPa Calm     76% 0.00in /  0mm 0.0 W/m2 CLR
06:32 45.0 °F /  7.2 °C 37.8 °F /  3.2 °C 29.97in /  1014.8hPa Calm     76% 0.00in /  0mm 0.0 W/m2 CLR
06:37 44.8 °F /  7.1 °C 37.7 °F /  3.2 °C 29.97in /  1014.8hPa Calm     76% 0.00in /  0mm 0.0 W/m2 CLR
06:42 44.4 °F /  6.9 °C 37.7 °F /  3.2 °C 29.97in /  1014.8hPa Calm     77% 0.00in /  0mm 0.0 W/m2 CLR
06:47 44.2 °F /  6.8 °C 37.5 °F /  3.1 °C 29.97in /  1014.8hPa Calm     77% 0.00in /  0mm 0.0 W/m2 CLR
06:52 44.2 °F /  6.8 °C 37.5 °F /  3.1 °C 29.97in /  1014.8hPa Calm     77% 0.00in /  0mm 0.0 W/m2 CLR
06:57 44.1 °F /  6.7 °C 37.6 °F /  3.1 °C 29.98in /  1015.1hPa Calm     78% 0.00in /  0mm 0.0 W/m2 CLR
07:02 44.2 °F /  6.8 °C 37.8 °F /  3.2 °C 29.98in /  1015.1hPa Calm     78% 0.00in /  0mm 0.0 W/m2 CLR
07:07 44.4 °F /  6.9 °C 38.0 °F /  3.3 °C 29.98in /  1015.1hPa Calm     78% 0.00in /  0mm 0.0 W/m2 CLR
07:12 45.5 °F /  7.5 °C 39.0 °F /  3.9 °C 29.97in /  1014.8hPa Calm     78% 0.00in /  0mm 0.0 W/m2 CLR
07:17 45.7 °F /  7.6 °C 39.2 °F /  4 °C 29.98in /  1015.1hPa Calm     78% 0.00in /  0mm 0.0 W/m2 CLR
07:22 46.8 °F /  8.2 °C 39.9 °F /  4.4 °C 29.98in /  1015.1hPa Calm     77% 0.00in /  0mm 0.0 W/m2 CLR
07:27 47.1 °F /  8.4 °C 40.3 °F /  4.6 °C 29.98in /  1015.1hPa Calm     77% 0.00in /  0mm 0.0 W/m2 CLR
07:32 47.5 °F /  8.6 °C 40.6 °F /  4.8 °C 29.98in /  1015.1hPa Calm     77% 0.00in /  0mm 0.0 W/m2 CLR
07:33 47.7 °F /  8.7 °C 40.8 °F /  4.9 °C 29.98in /  1015.1hPa Calm     77% 0.00in /  0mm 0.0 W/m2 CLR
07:38 48.2 °F /  9 °C 41.0 °F /  5 °C 29.98in /  1015.1hPa Calm     76% 0.00in /  0mm 0.0 W/m2 CLR
07:43 48.7 °F /  9.3 °C 41.2 °F /  5.1 °C 29.98in /  1015.1hPa Calm     75% 0.00in /  0mm 0.0 W/m2 CLR
07:48 49.6 °F /  9.8 °C 42.0 °F /  5.6 °C 29.98in /  1015.1hPa Calm     75% 0.00in /  0mm 0.0 W/m2 CLR
07:53 50.5 °F /  10.3 °C 42.6 °F /  5.9 °C 29.98in /  1015.1hPa Calm     74% 0.00in /  0mm 0.0 W/m2 CLR
07:58 51.1 °F /  10.6 °C 42.7 °F /  5.9 °C 29.97in /  1014.8hPa Calm     73% 0.00in /  0mm 0.0 W/m2 CLR
08:03 53.2 °F /  11.8 °C 44.1 °F /  6.7 °C 29.97in /  1014.8hPa Calm     71% 0.00in /  0mm 0.0 W/m2 OVC
08:08 54.1 °F /  12.3 °C 44.2 °F /  6.8 °C 29.97in /  1014.8hPa Calm     69% 0.00in /  0mm 0.0 W/m2 OVC
08:13 54.7 °F /  12.6 °C 44.7 °F /  7.1 °C 29.97in /  1014.8hPa Calm     69% 0.00in /  0mm 0.0 W/m2 OVC
08:18 55.9 °F /  13.3 °C 44.7 °F /  7.1 °C 29.97in /  1014.8hPa Calm     66% 0.00in /  0mm 0.0 W/m2 OVC
08:23 56.8 °F /  13.8 °C 45.2 °F /  7.3 °C 29.97in /  1014.8hPa Calm     65% 0.00in /  0mm 0.0 W/m2 OVC
08:28 57.6 °F /  14.2 °C 45.9 °F /  7.7 °C 29.97in /  1014.8hPa Calm     65% 0.00in /  0mm 0.0 W/m2 OVC
08:33 58.3 °F /  14.6 °C 45.7 °F /  7.6 °C 29.97in /  1014.8hPa Calm     63% 0.00in /  0mm 0.0 W/m2 OVC
08:38 59.0 °F /  15 °C 46.0 °F /  7.8 °C 29.97in /  1014.8hPa Calm     62% 0.00in /  0mm 0.0 W/m2 OVC
08:43 59.5 °F /  15.3 °C 46.5 °F /  8.1 °C 29.97in /  1014.8hPa Calm     62% 0.00in /  0mm 0.0 W/m2 OVC
08:48 60.1 °F /  15.6 °C 46.6 °F /  8.1 °C 29.97in /  1014.8hPa Calm     61% 0.00in /  0mm 0.0 W/m2 OVC
08:53 61.5 °F /  16.4 °C 47.9 °F /  8.8 °C 29.97in /  1014.8hPa Calm     61% 0.00in /  0mm 0.0 W/m2 OVC
08:58 62.4 °F /  16.9 °C 47.9 °F /  8.8 °C 29.97in /  1014.8hPa ESE 1.1mph /  1.8km/h 1.2mph /  1.9km/h 59% 0.00in /  0mm 0.0 W/m2 OVC
09:03 63.7 °F /  17.6 °C 48.2 °F /  9 °C 29.97in /  1014.8hPa East 6.7mph /  10.8km/h 6.9mph /  11.1km/h 57% 0.00in /  0mm 0.0 W/m2 OVC
09:08 64.6 °F /  18.1 °C 48.5 °F /  9.2 °C 29.97in /  1014.8hPa ESE 1.8mph /  2.9km/h   56% 0.00in /  0mm 0.0 W/m2 OVC
09:13 65.5 °F /  18.6 °C 48.4 °F /  9.1 °C 29.97in /  1014.8hPa Calm     54% 0.00in /  0mm 0.0 W/m2 OVC
09:18 66.4 °F /  19.1 °C 48.2 °F /  9 °C 29.97in /  1014.8hPa ESE 0.7mph /  1.1km/h 2.3mph /  3.7km/h 52% 0.00in /  0mm 0.0 W/m2 OVC
09:23 67.1 °F /  19.5 °C 48.9 °F /  9.4 °C 29.97in /  1014.8hPa Calm     52% 0.00in /  0mm 0.0 W/m2 OVC
09:28 68.2 °F /  20.1 °C 48.3 °F /  9.1 °C 29.97in /  1014.8hPa Calm   2.5mph /  4km/h 49% 0.00in /  0mm 0.0 W/m2 OVC
09:33 68.5 °F /  20.3 °C 47.5 °F /  8.6 °C 29.97in /  1014.8hPa Calm     47% 0.00in /  0mm 0.0 W/m2 OVC
09:38 68.7 °F /  20.4 °C 47.7 °F /  8.7 °C 29.97in /  1014.8hPa Calm     47% 0.00in /  0mm 0.0 W/m2 OVC
09:43 69.3 °F /  20.7 °C 48.2 °F /  9 °C 29.97in /  1014.8hPa Calm     47% 0.00in /  0mm 0.0 W/m2 OVC
09:48 69.4 °F /  20.8 °C 47.8 °F /  8.8 °C 29.97in /  1014.8hPa Calm     46% 0.00in /  0mm 0.0 W/m2 OVC
09:53 69.3 °F /  20.7 °C 47.0 °F /  8.3 °C 29.97in /  1014.8hPa SW 9.5mph /  15.3km/h 10.4mph /  16.7km/h 45% 0.00in /  0mm 0.0 W/m2 OVC
09:58 70.0 °F /  21.1 °C 46.4 °F /  8 °C 29.97in /  1014.8hPa WNW 0.2mph /  0.3km/h 8.1mph /  13km/h 43% 0.00in /  0mm 0.0 W/m2 OVC
09:59 70.0 °F /  21.1 °C 46.4 °F /  8 °C 29.97in /  1014.8hPa WNW 2.5mph /  4km/h 4.6mph /  7.4km/h 43% 0.00in /  0mm 0.0 W/m2 OVC
10:04 70.0 °F /  21.1 °C 47.1 °F /  8.4 °C 29.97in /  1014.8hPa Calm     44% 0.00in /  0mm 0.0 W/m2 CLR
10:05 70.3 °F /  21.3 °C 47.4 °F /  8.6 °C 29.97in /  1014.8hPa Calm     44% 0.00in /  0mm 0.0 W/m2 CLR
10:10 70.5 °F /  21.4 °C 47.5 °F /  8.6 °C 29.97in /  1014.8hPa West 2.4mph /  3.9km/h 4.6mph /  7.4km/h 44% 0.00in /  0mm 0.0 W/m2 CLR
10:15 70.7 °F /  21.5 °C 47.1 °F /  8.4 °C 29.97in /  1014.8hPa SW 3.4mph /  5.5km/h 3.5mph /  5.6km/h 43% 0.00in /  0mm 0.0 W/m2 CLR
10:20 71.2 °F /  21.8 °C 47.0 °F /  8.3 °C 29.97in /  1014.8hPa SW 8.0mph /  12.9km/h 8.0mph /  12.9km/h 42% 0.00in /  0mm 0.0 W/m2 CLR
10:25 70.9 °F /  21.6 °C 46.6 °F /  8.1 °C 29.97in /  1014.8hPa West 3.5mph /  5.6km/h 4.6mph /  7.4km/h 42% 0.00in /  0mm 0.0 W/m2 CLR
10:30 71.2 °F /  21.8 °C 45.7 °F /  7.6 °C 29.97in /  1014.8hPa WNW 9.4mph /  15.1km/h 13.8mph /  22.2km/h 40% 0.00in /  0mm 0.0 W/m2 CLR
10:35 70.9 °F /  21.6 °C 46.6 °F /  8.1 °C 29.97in /  1014.8hPa Calm   14.0mph /  22.5km/h 42% 0.00in /  0mm 0.0 W/m2 CLR
10:40 71.4 °F /  21.9 °C 46.5 °F /  8.1 °C 29.97in /  1014.8hPa Calm     41% 0.00in /  0mm 0.0 W/m2 CLR
10:45 71.4 °F /  21.9 °C 46.5 °F /  8.1 °C 29.96in /  1014.4hPa WSW 4.0mph /  6.4km/h 4.0mph /  6.4km/h 41% 0.00in /  0mm 0.0 W/m2 CLR
10:50 71.2 °F /  21.8 °C 46.3 °F /  7.9 °C 29.96in /  1014.4hPa WSW 6.5mph /  10.5km/h 6.9mph /  11.1km/h 41% 0.00in /  0mm 0.0 W/m2 CLR
10:55 71.1 °F /  21.7 °C 46.2 °F /  7.9 °C 29.96in /  1014.4hPa Calm     41% 0.00in /  0mm 0.0 W/m2 CLR
11:00 71.2 °F /  21.8 °C 46.3 °F /  7.9 °C 29.96in /  1014.4hPa WSW 7.2mph /  11.6km/h 7.2mph /  11.6km/h 41% 0.00in /  0mm 0.0 W/m2 CLR
11:05 71.4 °F /  21.9 °C 45.8 °F /  7.7 °C 29.96in /  1014.4hPa Calm   13.0mph /  20.9km/h 40% 0.00in /  0mm 0.0 W/m2 CLR
11:10 71.4 °F /  21.9 °C 46.5 °F /  8.1 °C 29.96in /  1014.4hPa SSW 7.3mph /  11.7km/h 11.5mph /  18.5km/h 41% 0.00in /  0mm 0.0 W/m2 CLR
11:15 71.2 °F /  21.8 °C 46.3 °F /  7.9 °C 29.96in /  1014.4hPa WSW 6.0mph /  9.7km/h 6.0mph /  9.7km/h 41% 0.00in /  0mm 0.0 W/m2 CLR
11:20 71.2 °F /  21.8 °C 46.3 °F /  7.9 °C 29.96in /  1014.4hPa Calm   5.8mph /  9.3km/h 41% 0.00in /  0mm 0.0 W/m2 CLR
11:25 71.2 °F /  21.8 °C 46.3 °F /  7.9 °C 29.96in /  1014.4hPa South 0.6mph /  1km/h 1.2mph /  1.9km/h 41% 0.00in /  0mm 0.0 W/m2 CLR
11:30 71.2 °F /  21.8 °C 45.7 °F /  7.6 °C 29.96in /  1014.4hPa Calm   3.5mph /  5.6km/h 40% 0.00in /  0mm 0.0 W/m2 CLR
11:35 71.2 °F /  21.8 °C 45.7 °F /  7.6 °C 29.96in /  1014.4hPa Calm     40% 0.00in /  0mm 0.0 W/m2 CLR
11:40 71.2 °F /  21.8 °C 45.7 °F /  7.6 °C 29.95in /  1014.1hPa Calm     40% 0.00in /  0mm 0.0 W/m2 CLR
11:45 71.4 °F /  21.9 °C 45.8 °F /  7.7 °C 29.95in /  1014.1hPa Calm   4.6mph /  7.4km/h 40% 0.00in /  0mm 0.0 W/m2 CLR
11:50 71.8 °F /  22.1 °C 45.5 °F /  7.5 °C 29.96in /  1014.4hPa Calm     39% 0.00in /  0mm 0.0 W/m2 CLR
11:55 71.8 °F /  22.1 °C 45.5 °F /  7.5 °C 29.95in /  1014.1hPa SSE 0.8mph /  1.3km/h 6.9mph /  11.1km/h 39% 0.00in /  0mm 0.0 W/m2 CLR
12:00 71.8 °F /  22.1 °C 44.8 °F /  7.1 °C 29.95in /  1014.1hPa Calm     38% 0.00in /  0mm 0.0 W/m2 CLR
12:05 71.8 °F /  22.1 °C 44.1 °F /  6.7 °C 29.95in /  1014.1hPa SW 6.0mph /  9.7km/h 7.0mph /  11.3km/h 37% 0.00in /  0mm 0.0 W/m2 FEW
12:10 71.6 °F /  22 °C 43.9 °F /  6.6 °C 29.95in /  1014.1hPa WSW 7.0mph /  11.3km/h 7.0mph /  11.3km/h 37% 0.00in /  0mm 0.0 W/m2 FEW
12:15 71.9 °F /  22.2 °C 43.5 °F /  6.4 °C 29.95in /  1014.1hPa WSW 8.0mph /  12.9km/h 9.0mph /  14.5km/h 36% 0.00in /  0mm 0.0 W/m2 FEW
12:20 72.1 °F /  22.3 °C 43.7 °F /  6.5 °C 29.95in /  1014.1hPa West 17.7mph /  28.5km/h 19.6mph /  31.5km/h 36% 0.00in /  0mm 0.0 W/m2 FEW
12:25 72.1 °F /  22.3 °C 43.7 °F /  6.5 °C 29.95in /  1014.1hPa Calm     36% 0.00in /  0mm 0.0 W/m2 FEW
12:30 73.0 °F /  22.8 °C 43.0 °F /  6.1 °C 29.95in /  1014.1hPa SW 6.9mph /  11.1km/h 6.9mph /  11.1km/h 34% 0.00in /  0mm 0.0 W/m2 FEW
12:35 73.2 °F /  22.9 °C 42.4 °F /  5.8 °C 29.94in /  1013.8hPa Calm   7.0mph /  11.3km/h 33% 0.00in /  0mm 0.0 W/m2 FEW
12:40 73.5 °F /  23.1 °C 41.8 °F /  5.4 °C 29.95in /  1014.1hPa WSW 16.0mph /  25.7km/h 16.0mph /  25.7km/h 32% 0.00in /  0mm 0.0 W/m2 FEW
12:45 73.4 °F /  23 °C 40.1 °F /  4.5 °C 29.95in /  1014.1hPa WSW 8.0mph /  12.9km/h 21.0mph /  33.8km/h 30% 0.00in /  0mm 0.0 W/m2 FEW
12:50 73.0 °F /  22.8 °C 39.8 °F /  4.3 °C 29.95in /  1014.1hPa SW 5.5mph /  8.9km/h 10.5mph /  16.9km/h 30% 0.00in /  0mm 0.0 W/m2 FEW
12:55 72.7 °F /  22.6 °C 40.3 °F /  4.6 °C 29.95in /  1014.1hPa SSW 8.5mph /  13.7km/h 12.7mph /  20.4km/h 31% 0.00in /  0mm 0.0 W/m2 FEW
13:00 72.3 °F /  22.4 °C 40.0 °F /  4.4 °C 29.95in /  1014.1hPa Calm     31% 0.00in /  0mm 0.0 W/m2 FEW
13:05 72.0 °F /  22.2 °C 39.7 °F /  4.3 °C 29.95in /  1014.1hPa WNW 3.2mph /  5.1km/h 16.5mph /  26.6km/h 31% 0.00in /  0mm 0.0 W/m2 CLR
13:10 71.4 °F /  21.9 °C 38.4 °F /  3.6 °C 29.95in /  1014.1hPa WNW 8.2mph /  13.2km/h 8.3mph /  13.4km/h 30% 0.00in /  0mm 0.0 W/m2 CLR
13:15 71.4 °F /  21.9 °C 40.0 °F /  4.4 °C 29.94in /  1013.8hPa Calm   9.2mph /  14.8km/h 32% 0.00in /  0mm 0.0 W/m2 CLR
13:20 71.6 °F /  22 °C 40.2 °F /  4.6 °C 29.94in /  1013.8hPa Calm     32% 0.00in /  0mm 0.0 W/m2 CLR
13:25 72.1 °F /  22.3 °C 40.6 °F /  4.8 °C 29.94in /  1013.8hPa WSW 10.5mph /  16.9km/h 10.5mph /  16.9km/h 32% 0.00in /  0mm 0.0 W/m2 CLR
13:30 72.1 °F /  22.3 °C 39.8 °F /  4.3 °C 29.94in /  1013.8hPa SW 6.3mph /  10.1km/h 6.3mph /  10.1km/h 31% 0.00in /  0mm 0.0 W/m2 CLR
13:35 72.3 °F /  22.4 °C 40.8 °F /  4.9 °C 29.94in /  1013.8hPa SW 8.6mph /  13.8km/h 15.0mph /  24.1km/h 32% 0.00in /  0mm 0.0 W/m2 CLR
13:40 72.5 °F /  22.5 °C 41.0 °F /  5 °C 29.94in /  1013.8hPa Calm     32% 0.00in /  0mm 0.0 W/m2 CLR
13:45 72.3 °F /  22.4 °C 40.0 °F /  4.4 °C 29.94in /  1013.8hPa SW 9.6mph /  15.4km/h 9.6mph /  15.4km/h 31% 0.00in /  0mm 0.0 W/m2 CLR
13:50 72.9 °F /  22.7 °C 39.6 °F /  4.2 °C 29.94in /  1013.8hPa Calm     30% 0.00in /  0mm 0.0 W/m2 CLR
13:55 72.7 °F /  22.6 °C 38.6 °F /  3.7 °C 29.94in /  1013.8hPa Calm     29% 0.00in /  0mm 0.0 W/m2 CLR
14:00 73.0 °F /  22.8 °C 39.8 °F /  4.3 °C 29.94in /  1013.8hPa SW 2.6mph /  4.2km/h 4.6mph /  7.4km/h 30% 0.00in /  0mm 0.0 W/m2 CLR
14:05 72.9 °F /  22.7 °C 36.0 °F /  2.2 °C 29.94in /  1013.8hPa WNW 2.6mph /  4.2km/h 3.5mph /  5.6km/h 26% 0.00in /  0mm 0.0 W/m2 CLR
14:06 72.9 °F /  22.7 °C 36.0 °F /  2.2 °C 29.94in /  1013.8hPa WNW 3.4mph /  5.5km/h 3.5mph /  5.6km/h 26% 0.00in /  0mm 0.0 W/m2 CLR
14:11 72.7 °F /  22.6 °C 36.8 °F /  2.7 °C 29.94in /  1013.8hPa Calm     27% 0.00in /  0mm 0.0 W/m2 CLR
14:16 73.0 °F /  22.8 °C 38.0 °F /  3.3 °C 29.93in /  1013.4hPa South 4.6mph /  7.4km/h 4.6mph /  7.4km/h 28% 0.00in /  0mm 0.0 W/m2 CLR
14:21 73.0 °F /  22.8 °C 38.9 °F /  3.8 °C 29.93in /  1013.4hPa Calm     29% 0.00in /  0mm 0.0 W/m2 CLR
14:26 73.2 °F /  22.9 °C 38.1 °F /  3.4 °C 29.93in /  1013.4hPa SW 9.5mph /  15.3km/h 9.5mph /  15.3km/h 28% 0.00in /  0mm 0.0 W/m2 CLR
14:31 73.4 °F /  23 °C 38.3 °F /  3.5 °C 29.93in /  1013.4hPa SW 4.1mph /  6.6km/h 5.8mph /  9.3km/h 28% 0.00in /  0mm 0.0 W/m2 CLR
14:36 73.2 °F /  22.9 °C 35.3 °F /  1.8 °C 29.93in /  1013.4hPa WSW 8.5mph /  13.7km/h 8.5mph /  13.7km/h 25% 0.00in /  0mm 0.0 W/m2 CLR
14:41 72.7 °F /  22.6 °C 35.8 °F /  2.1 °C 29.93in /  1013.4hPa WSW 4.9mph /  7.9km/h 9.2mph /  14.8km/h 26% 0.00in /  0mm 0.0 W/m2 CLR
14:46 72.7 °F /  22.6 °C 35.8 °F /  2.1 °C 29.93in /  1013.4hPa West 5.6mph /  9km/h 5.8mph /  9.3km/h 26% 0.00in /  0mm 0.0 W/m2 CLR
14:51 72.1 °F /  22.3 °C 34.4 °F /  1.3 °C 29.93in /  1013.4hPa WNW 6.5mph /  10.5km/h 6.9mph /  11.1km/h 25% 0.00in /  0mm 0.0 W/m2 CLR
14:56 71.4 °F /  21.9 °C 33.7 °F /  0.9 °C 29.93in /  1013.4hPa WNW 5.6mph /  9km/h 5.6mph /  9km/h 25% 0.00in /  0mm 0.0 W/m2 CLR
15:01 71.4 °F /  21.9 °C 36.6 °F /  2.6 °C 29.92in /  1013.1hPa West 0.6mph /  1km/h 1.2mph /  1.9km/h 28% 0.00in /  0mm 0.0 W/m2 CLR
15:06 71.4 °F /  21.9 °C 36.6 °F /  2.6 °C 29.92in /  1013.1hPa SW 3.5mph /  5.6km/h 3.5mph /  5.6km/h 28% 0.00in /  0mm 0.0 W/m2 CLR
15:11 71.4 °F /  21.9 °C 36.6 °F /  2.6 °C 29.92in /  1013.1hPa Calm     28% 0.00in /  0mm 0.0 W/m2 CLR
15:16 71.4 °F /  21.9 °C 36.6 °F /  2.6 °C 29.92in /  1013.1hPa West 0.9mph /  1.4km/h 2.3mph /  3.7km/h 28% 0.00in /  0mm 0.0 W/m2 CLR
15:19 71.2 °F /  21.8 °C 36.4 °F /  2.4 °C 29.92in /  1013.1hPa WNW 7.4mph /  11.9km/h 7.4mph /  11.9km/h 28% 0.00in /  0mm 0.0 W/m2 CLR
15:24 70.9 °F /  21.6 °C 35.2 °F /  1.8 °C 29.92in /  1013.1hPa WSW 7.4mph /  11.9km/h 8.1mph /  13km/h 27% 0.00in /  0mm 0.0 W/m2 CLR
15:29 70.9 °F /  21.6 °C 36.1 °F /  2.3 °C 29.92in /  1013.1hPa SW 0.4mph /  0.6km/h 2.3mph /  3.7km/h 28% 0.00in /  0mm 0.0 W/m2 CLR
15:34 70.7 °F /  21.5 °C 36.9 °F /  2.7 °C 29.92in /  1013.1hPa West 0.4mph /  0.6km/h 6.9mph /  11.1km/h 29% 0.00in /  0mm 0.0 W/m2 CLR
15:39 70.5 °F /  21.4 °C 36.7 °F /  2.6 °C 29.92in /  1013.1hPa Calm     29% 0.00in /  0mm 0.0 W/m2 CLR
15:44 70.3 °F /  21.3 °C 36.6 °F /  2.6 °C 29.93in /  1013.4hPa Calm     29% 0.00in /  0mm 0.0 W/m2 CLR
15:48 70.5 °F /  21.4 °C 36.7 °F /  2.6 °C 29.93in /  1013.4hPa SW 2.0mph /  3.2km/h 2.3mph /  3.7km/h 29% 0.00in /  0mm 0.0 W/m2 CLR
15:54 70.3 °F /  21.3 °C 36.6 °F /  2.6 °C 29.92in /  1013.1hPa Calm     29% 0.00in /  0mm 0.0 W/m2 CLR
15:59 70.5 °F /  21.4 °C 37.6 °F /  3.1 °C 29.93in /  1013.4hPa Calm     30% 0.00in /  0mm 0.0 W/m2 CLR
16:04 70.3 °F /  21.3 °C 37.4 °F /  3 °C 29.92in /  1013.1hPa Calm     30% 0.00in /  0mm 0.0 W/m2 CLR
16:09 70.3 °F /  21.3 °C 38.3 °F /  3.5 °C 29.92in /  1013.1hPa Calm     31% 0.00in /  0mm 0.0 W/m2 CLR
16:14 70.3 °F /  21.3 °C 38.3 °F /  3.5 °C 29.92in /  1013.1hPa Calm     31% 0.00in /  0mm 0.0 W/m2 CLR
16:19 70.0 °F /  21.1 °C 38.8 °F /  3.8 °C 29.92in /  1013.1hPa Calm     32% 0.00in /  0mm 0.0 W/m2 CLR
16:24 69.8 °F /  21 °C 37.8 °F /  3.2 °C 29.92in /  1013.1hPa West 1.4mph /  2.3km/h 2.3mph /  3.7km/h 31% 0.00in /  0mm 0.0 W/m2 CLR
16:29 69.6 °F /  20.9 °C 37.6 °F /  3.1 °C 29.92in /  1013.1hPa NW 2.9mph /  4.7km/h 3.5mph /  5.6km/h 31% 0.00in /  0mm 0.0 W/m2 CLR
16:34 69.6 °F /  20.9 °C 38.4 °F /  3.6 °C 29.92in /  1013.1hPa West 1.8mph /  2.9km/h 2.3mph /  3.7km/h 32% 0.00in /  0mm 0.0 W/m2 CLR
16:39 69.4 °F /  20.8 °C 38.3 °F /  3.5 °C 29.92in /  1013.1hPa Calm     32% 0.00in /  0mm 0.0 W/m2 CLR
16:44 69.6 °F /  20.9 °C 38.4 °F /  3.6 °C 29.92in /  1013.1hPa Calm     32% 0.00in /  0mm 0.0 W/m2 CLR
16:49 69.6 °F /  20.9 °C 38.4 °F /  3.6 °C 29.92in /  1013.1hPa Calm     32% 0.00in /  0mm 0.0 W/m2 CLR
16:54 69.6 °F /  20.9 °C 37.6 °F /  3.1 °C 29.92in /  1013.1hPa Calm     31% 0.00in /  0mm 0.0 W/m2 CLR
16:59 69.6 °F /  20.9 °C 38.4 °F /  3.6 °C 29.92in /  1013.1hPa NW 0.7mph /  1.1km/h 2.3mph /  3.7km/h 32% 0.00in /  0mm 0.0 W/m2 CLR
17:04 69.1 °F /  20.6 °C 38.0 °F /  3.3 °C 29.91in /  1012.8hPa Calm     32% 0.00in /  0mm 0.0 W/m2 CLR
17:09 68.7 °F /  20.4 °C 37.7 °F /  3.2 °C 29.91in /  1012.8hPa Calm     32% 0.00in /  0mm 0.0 W/m2 CLR
17:14 68.5 °F /  20.3 °C 37.5 °F /  3.1 °C 29.91in /  1012.8hPa Calm     32% 0.00in /  0mm 0.0 W/m2 CLR
17:19 68.5 °F /  20.3 °C 37.5 °F /  3.1 °C 29.91in /  1012.8hPa Calm     32% 0.00in /  0mm 0.0 W/m2 CLR
17:24 68.2 °F /  20.1 °C 37.2 °F /  2.9 °C 29.91in /  1012.8hPa Calm     32% 0.00in /  0mm 0.0 W/m2 CLR
17:29 68.2 °F /  20.1 °C 38.0 °F /  3.3 °C 29.91in /  1012.8hPa Calm     33% 0.00in /  0mm 0.0 W/m2 CLR
17:34 68.2 °F /  20.1 °C 38.0 °F /  3.3 °C 29.92in /  1013.1hPa Calm     33% 0.00in /  0mm 0.0 W/m2 CLR
17:39 67.8 °F /  19.9 °C 37.6 °F /  3.1 °C 29.91in /  1012.8hPa Calm     33% 0.00in /  0mm 0.0 W/m2 CLR
17:44 67.8 °F /  19.9 °C 37.6 °F /  3.1 °C 29.91in /  1012.8hPa Calm     33% 0.00in /  0mm 0.0 W/m2 CLR
17:49 67.8 °F /  19.9 °C 37.6 °F /  3.1 °C 29.91in /  1012.8hPa Calm     33% 0.00in /  0mm 0.0 W/m2 CLR
17:54 67.8 °F /  19.9 °C 37.6 °F /  3.1 °C 29.91in /  1012.8hPa Calm     33% 0.00in /  0mm 0.0 W/m2 CLR
17:59 67.8 °F /  19.9 °C 37.6 °F /  3.1 °C 29.91in /  1012.8hPa Calm     33% 0.00in /  0mm 0.0 W/m2 CLR
18:04 67.8 °F /  19.9 °C 37.6 °F /  3.1 °C 29.91in /  1012.8hPa Calm     33% 0.00in /  0mm 0.0 W/m2 CLR
18:09 67.6 °F /  19.8 °C 37.5 °F /  3.1 °C 29.91in /  1012.8hPa Calm     33% 0.00in /  0mm 0.0 W/m2 CLR
18:14 67.6 °F /  19.8 °C 37.5 °F /  3.1 °C 29.91in /  1012.8hPa Calm     33% 0.00in /  0mm 0.0 W/m2 CLR
18:19 67.3 °F /  19.6 °C 37.2 °F /  2.9 °C 29.91in /  1012.8hPa Calm     33% 0.00in /  0mm 0.0 W/m2 CLR
18:24 67.3 °F /  19.6 °C 37.2 °F /  2.9 °C 29.91in /  1012.8hPa Calm     33% 0.00in /  0mm 0.0 W/m2 CLR
18:29 67.1 °F /  19.5 °C 37.0 °F /  2.8 °C 29.91in /  1012.8hPa Calm     33% 0.00in /  0mm 0.0 W/m2 CLR
18:34 66.9 °F /  19.4 °C 36.9 °F /  2.7 °C 29.91in /  1012.8hPa Calm     33% 0.00in /  0mm 0.0 W/m2 CLR
18:39 66.7 °F /  19.3 °C 38.2 °F /  3.4 °C 29.91in /  1012.8hPa Calm     35% 0.00in /  0mm 0.0 W/m2 CLR
18:44 66.2 °F /  19 °C 38.4 °F /  3.6 °C 29.91in /  1012.8hPa Calm     36% 0.00in /  0mm 0.0 W/m2 CLR
18:49 66.2 °F /  19 °C 38.4 °F /  3.6 °C 29.91in /  1012.8hPa Calm     36% 0.00in /  0mm 0.0 W/m2 CLR
18:54 65.8 °F /  18.8 °C 38.8 °F /  3.8 °C 29.91in /  1012.8hPa Calm     37% 0.00in /  0mm 0.0 W/m2 CLR
18:59 65.5 °F /  18.6 °C 38.5 °F /  3.6 °C 29.91in /  1012.8hPa Calm     37% 0.00in /  0mm 0.0 W/m2 CLR
19:04 65.1 °F /  18.4 °C 38.2 °F /  3.4 °C 29.91in /  1012.8hPa Calm     37% 0.00in /  0mm 0.0 W/m2 CLR
19:09 64.8 °F /  18.2 °C 38.5 °F /  3.6 °C 29.91in /  1012.8hPa Calm     38% 0.00in /  0mm 0.0 W/m2 CLR
19:14 64.0 °F /  17.8 °C 38.6 °F /  3.7 °C 29.91in /  1012.8hPa Calm     39% 0.00in /  0mm 0.0 W/m2 CLR
19:19 63.7 °F /  17.6 °C 38.2 °F /  3.4 °C 29.91in /  1012.8hPa Calm     39% 0.00in /  0mm 0.0 W/m2 CLR
19:24 63.7 °F /  17.6 °C 38.2 °F /  3.4 °C 29.91in /  1012.8hPa Calm     39% 0.00in /  0mm 0.0 W/m2 CLR
19:29 63.5 °F /  17.5 °C 38.1 °F /  3.4 °C 29.91in /  1012.8hPa Calm     39% 0.00in /  0mm 0.0 W/m2 CLR
19:34 63.1 °F /  17.3 °C 38.4 °F /  3.6 °C 29.91in /  1012.8hPa Calm     40% 0.00in /  0mm 0.0 W/m2 CLR
19:39 62.8 °F /  17.1 °C 38.7 °F /  3.7 °C 29.91in /  1012.8hPa Calm     41% 0.00in /  0mm 0.0 W/m2 CLR
19:44 62.6 °F /  17 °C 38.6 °F /  3.7 °C 29.91in /  1012.8hPa Calm     41% 0.00in /  0mm 0.0 W/m2 CLR
19:49 61.7 °F /  16.5 °C 38.4 °F /  3.6 °C 29.91in /  1012.8hPa Calm     42% 0.00in /  0mm 0.0 W/m2 CLR
19:54 61.3 °F /  16.3 °C 38.0 °F /  3.3 °C 29.91in /  1012.8hPa Calm     42% 0.00in /  0mm 0.0 W/m2 CLR
19:59 61.3 °F /  16.3 °C 38.0 °F /  3.3 °C 29.91in /  1012.8hPa Calm     42% 0.00in /  0mm 0.0 W/m2 CLR
20:04 61.2 °F /  16.2 °C 37.9 °F /  3.3 °C 29.92in /  1013.1hPa Calm     42% 0.00in /  0mm 0.0 W/m2 CLR
20:09 61.0 °F /  16.1 °C 38.3 °F /  3.5 °C 29.92in /  1013.1hPa Calm     43% 0.00in /  0mm 0.0 W/m2 CLR
20:20 60.4 °F /  15.8 °C 39.0 °F /  3.9 °C 29.92in /  1013.1hPa Calm     45% 0.00in /  0mm 0.0 W/m2 CLR
20:22 60.4 °F /  15.8 °C 39.0 °F /  3.9 °C 29.92in /  1013.1hPa Calm     45% 0.00in /  0mm 0.0 W/m2 CLR
20:23 60.1 °F /  15.6 °C 38.7 °F /  3.7 °C 29.91in /  1012.8hPa Calm     45% 0.00in /  0mm 0.0 W/m2 CLR
20:26 60.1 °F /  15.6 °C 38.7 °F /  3.7 °C 29.91in /  1012.8hPa Calm     45% 0.00in /  0mm 0.0 W/m2 CLR
20:32 59.7 °F /  15.4 °C 38.3 °F /  3.5 °C 29.91in /  1012.8hPa Calm     45% 0.00in /  0mm 0.0 W/m2 CLR
20:34 59.7 °F /  15.4 °C 38.3 °F /  3.5 °C 29.91in /  1012.8hPa Calm     45% 0.00in /  0mm 0.0 W/m2 CLR
20:37 59.5 °F /  15.3 °C 37.6 °F /  3.1 °C 29.91in /  1012.8hPa Calm     44% 0.00in /  0mm 0.0 W/m2 CLR
20:42 59.4 °F /  15.2 °C 37.4 °F /  3 °C 29.91in /  1012.8hPa Calm     44% 0.00in /  0mm 0.0 W/m2 CLR
20:47 58.8 °F /  14.9 °C 37.5 °F /  3.1 °C 29.91in /  1012.8hPa Calm     45% 0.00in /  0mm 0.0 W/m2 CLR
20:52 58.3 °F /  14.6 °C 37.6 °F /  3.1 °C 29.91in /  1012.8hPa Calm     46% 0.00in /  0mm 0.0 W/m2 CLR
20:57 57.6 °F /  14.2 °C 37.5 °F /  3.1 °C 29.92in /  1013.1hPa Calm     47% 0.00in /  0mm 0.0 W/m2 CLR
21:02 57.0 °F /  13.9 °C 37.0 °F /  2.8 °C 29.91in /  1012.8hPa Calm     47% 0.00in /  0mm 0.0 W/m2 CLR
21:07 57.0 °F /  13.9 °C 37.0 °F /  2.8 °C 29.91in /  1012.8hPa Calm     47% 0.00in /  0mm 0.0 W/m2 CLR
21:12 56.8 °F /  13.8 °C 37.3 °F /  2.9 °C 29.91in /  1012.8hPa Calm     48% 0.00in /  0mm 0.0 W/m2 CLR
21:17 56.3 °F /  13.5 °C 36.8 °F /  2.7 °C 29.91in /  1012.8hPa Calm     48% 0.00in /  0mm 0.0 W/m2 CLR
21:22 56.1 °F /  13.4 °C 36.7 °F /  2.6 °C 29.91in /  1012.8hPa Calm     48% 0.00in /  0mm 0.0 W/m2 CLR
21:27 55.6 °F /  13.1 °C 36.7 °F /  2.6 °C 29.91in /  1012.8hPa Calm     49% 0.00in /  0mm 0.0 W/m2 CLR
21:32 55.2 °F /  12.9 °C 36.4 °F /  2.4 °C 29.91in /  1012.8hPa Calm     49% 0.00in /  0mm 0.0 W/m2 CLR
21:37 54.7 °F /  12.6 °C 35.9 °F /  2.2 °C 29.92in /  1013.1hPa Calm     49% 0.00in /  0mm 0.0 W/m2 CLR
21:42 54.1 °F /  12.3 °C 35.9 °F /  2.2 °C 29.92in /  1013.1hPa Calm     50% 0.00in /  0mm 0.0 W/m2 CLR
21:47 53.4 °F /  11.9 °C 36.7 °F /  2.6 °C 29.92in /  1013.1hPa Calm     53% 0.00in /  0mm 0.0 W/m2 CLR
21:52 52.7 °F /  11.5 °C 37.9 °F /  3.3 °C 29.92in /  1013.1hPa Calm     57% 0.00in /  0mm 0.0 W/m2 CLR
21:57 52.3 °F /  11.3 °C 37.1 °F /  2.8 °C 29.92in /  1013.1hPa Calm     56% 0.00in /  0mm 0.0 W/m2 CLR
22:02 52.3 °F /  11.3 °C 37.1 °F /  2.8 °C 29.92in /  1013.1hPa Calm     56% 0.00in /  0mm 0.0 W/m2 CLR
22:07 51.6 °F /  10.9 °C 36.9 °F /  2.7 °C 29.93in /  1013.4hPa Calm     57% 0.00in /  0mm 0.0 W/m2 CLR
22:12 51.4 °F /  10.8 °C 36.7 °F /  2.6 °C 29.93in /  1013.4hPa Calm     57% 0.00in /  0mm 0.0 W/m2 CLR
22:17 51.1 °F /  10.6 °C 35.9 °F /  2.2 °C 29.93in /  1013.4hPa Calm     56% 0.00in /  0mm 0.0 W/m2 CLR
22:22 50.7 °F /  10.4 °C 35.6 °F /  2 °C 29.93in /  1013.4hPa Calm     56% 0.00in /  0mm 0.0 W/m2 CLR
22:27 50.5 °F /  10.3 °C 35.4 °F /  1.9 °C 29.93in /  1013.4hPa Calm     56% 0.00in /  0mm 0.0 W/m2 CLR
22:32 50.2 °F /  10.1 °C 35.1 °F /  1.7 °C 29.93in /  1013.4hPa Calm     56% 0.00in /  0mm 0.0 W/m2 CLR
22:37 50.2 °F /  10.1 °C 35.5 °F /  1.9 °C 29.93in /  1013.4hPa Calm     57% 0.00in /  0mm 0.0 W/m2 CLR
22:42 49.6 °F /  9.8 °C 35.5 °F /  1.9 °C 29.93in /  1013.4hPa Calm     58% 0.00in /  0mm 0.0 W/m2 CLR
22:47 48.7 °F /  9.3 °C 35.0 °F /  1.7 °C 29.92in /  1013.1hPa Calm     59% 0.00in /  0mm 0.0 W/m2 CLR
22:52 48.2 °F /  9 °C 35.0 °F /  1.7 °C 29.93in /  1013.4hPa Calm     60% 0.00in /  0mm 0.0 W/m2 CLR
22:57 47.8 °F /  8.8 °C 34.6 °F /  1.4 °C 29.93in /  1013.4hPa Calm     60% 0.00in /  0mm 0.0 W/m2 CLR
23:02 47.7 °F /  8.7 °C 34.9 °F /  1.6 °C 29.93in /  1013.4hPa Calm     61% 0.00in /  0mm 0.0 W/m2 CLR
23:07 47.7 °F /  8.7 °C 34.9 °F /  1.6 °C 29.93in /  1013.4hPa Calm     61% 0.00in /  0mm 0.0 W/m2 CLR
23:12 47.5 °F /  8.6 °C 35.1 °F /  1.7 °C 29.92in /  1013.1hPa Calm     62% 0.00in /  0mm 0.0 W/m2 CLR
23:17 46.6 °F /  8.1 °C 35.0 °F /  1.7 °C 29.93in /  1013.4hPa Calm     64% 0.00in /  0mm 0.0 W/m2 CLR
23:22 46.2 °F /  7.9 °C 35.5 °F /  1.9 °C 29.94in /  1013.8hPa Calm     66% 0.00in /  0mm 0.0 W/m2 CLR
23:27 45.1 °F /  7.3 °C 34.1 °F /  1.2 °C 29.93in /  1013.4hPa Calm     65% 0.00in /  0mm 0.0 W/m2 CLR
23:32 44.8 °F /  7.1 °C 34.1 °F /  1.2 °C 29.94in /  1013.8hPa Calm     66% 0.00in /  0mm 0.0 W/m2 CLR
23:37 45.0 °F /  7.2 °C 34.3 °F /  1.3 °C 29.93in /  1013.4hPa Calm     66% 0.00in /  0mm 0.0 W/m2 CLR
23:42 45.0 °F /  7.2 °C 34.3 °F /  1.3 °C 29.94in /  1013.8hPa Calm     66% 0.00in /  0mm 0.0 W/m2 CLR
23:47 44.8 °F /  7.1 °C 34.5 °F /  1.4 °C 29.94in /  1013.8hPa Calm     67% 0.00in /  0mm 0.0 W/m2 CLR
23:52 44.4 °F /  6.9 °C 34.1 °F /  1.2 °C 29.93in /  1013.4hPa Calm     67% 0.00in /  0mm 0.0 W/m2 CLR
23:57 43.9 °F /  6.6 °C 33.6 °F /  0.9 °C 29.94in /  1013.8hPa Calm     67% 0.00in /  0mm 0.0 W/m2 CLR
Fernwood Weather
Compliments of Weather Underground - 4 mb